sensor_id;sensor_type;location;lat;lon;timestamp;pressure;altitude;pressure_sealevel;temperature;humidity
64025;BME280;50266;57.446;26.936;2023-03-13T00:00:08;98167.11;;;-5.67;100.0
64025;BME280;50266;57.446;26.936;2023-03-13T00:01:14;98172.45;;;-5.62;100.0
64025;BME280;50266;57.446;26.936;2023-03-13T00:02:11;98177.56;;;-5.4;100.0
64025;BME280;50266;57.446;26.936;2023-03-13T00:03:11;98174.28;;;-5.4;100.0
64025;BME280;50266;57.446;26.936;2023-03-13T00:04:11;98173.66;;;-5.55;100.0
64025;BME280;50266;57.446;26.936;2023-03-13T00:05:11;98169.4;;;-5.43;100.0
64025;BME280;50266;57.446;26.936;2023-03-13T00:06:11;98172.02;;;-5.52;100.0
64025;BME280;50266;57.446;26.936;2023-03-13T00:07:11;98176.9;;;-5.55;100.0
64025;BME280;50266;57.446;26.936;2023-03-13T00:08:11;98174.59;;;-5.54;100.0
64025;BME280;50266;57.446;26.936;2023-03-13T00:09:12;98181.8;;;-5.53;100.0
64025;BME280;50266;57.446;26.936;2023-03-13T00:10:11;98174.19;;;-5.6;100.0
64025;BME280;50266;57.446;26.936;2023-03-13T00:11:12;98173.38;;;-5.63;100.0
64025;BME280;50266;57.446;26.936;2023-03-13T00:12:11;98174.29;;;-5.5;100.0
64025;BME280;50266;57.446;26.936;2023-03-13T00:13:11;98174.84;;;-5.58;100.0
64025;BME280;50266;57.446;26.936;2023-03-13T00:14:11;98176.03;;;-5.6;100.0
64025;BME280;50266;57.446;26.936;2023-03-13T00:15:11;98172.23;;;-5.65;100.0
64025;BME280;50266;57.446;26.936;2023-03-13T00:16:12;98172.59;;;-5.71;100.0
64025;BME280;50266;57.446;26.936;2023-03-13T00:17:11;98175.59;;;-5.73;100.0
64025;BME280;50266;57.446;26.936;2023-03-13T00:18:11;98175.0;;;-5.84;100.0
64025;BME280;50266;57.446;26.936;2023-03-13T00:19:11;98174.61;;;-5.8;100.0
64025;BME280;50266;57.446;26.936;2023-03-13T00:20:11;98172.28;;;-5.77;100.0
64025;BME280;50266;57.446;26.936;2023-03-13T00:21:11;98175.05;;;-5.81;100.0
64025;BME280;50266;57.446;26.936;2023-03-13T00:22:11;98176.89;;;-5.84;100.0
64025;BME280;50266;57.446;26.936;2023-03-13T00:23:11;98177.22;;;-5.88;100.0
64025;BME280;50266;57.446;26.936;2023-03-13T00:24:11;98181.75;;;-5.91;100.0
64025;BME280;50266;57.446;26.936;2023-03-13T00:25:11;98178.66;;;-5.95;100.0
64025;BME280;50266;57.446;26.936;2023-03-13T00:26:12;98182.25;;;-5.92;100.0
64025;BME280;50266;57.446;26.936;2023-03-13T00:27:11;98180.34;;;-5.98;100.0
64025;BME280;50266;57.446;26.936;2023-03-13T00:28:11;98179.39;;;-6.08;100.0
64025;BME280;50266;57.446;26.936;2023-03-13T00:29:11;98179.56;;;-5.99;100.0
64025;BME280;50266;57.446;26.936;2023-03-13T00:30:12;98176.12;;;-6.0;100.0
64025;BME280;50266;57.446;26.936;2023-03-13T00:31:13;98165.41;;;-5.93;100.0
64025;BME280;50266;57.446;26.936;2023-03-13T00:32:11;98169.69;;;-6.05;100.0
64025;BME280;50266;57.446;26.936;2023-03-13T00:33:11;98168.61;;;-6.05;100.0
64025;BME280;50266;57.446;26.936;2023-03-13T00:34:11;98174.3;;;-6.0;100.0
64025;BME280;50266;57.446;26.936;2023-03-13T00:35:12;98171.58;;;-5.96;100.0
64025;BME280;50266;57.446;26.936;2023-03-13T00:36:15;98169.42;;;-6.03;100.0
64025;BME280;50266;57.446;26.936;2023-03-13T00:37:12;98172.39;;;-6.08;100.0
64025;BME280;50266;57.446;26.936;2023-03-13T00:38:12;98173.52;;;-6.11;100.0
64025;BME280;50266;57.446;26.936;2023-03-13T00:39:12;98176.45;;;-6.14;100.0
64025;BME280;50266;57.446;26.936;2023-03-13T00:40:12;98175.3;;;-6.14;100.0
64025;BME280;50266;57.446;26.936;2023-03-13T00:41:16;98175.43;;;-6.12;100.0
64025;BME280;50266;57.446;26.936;2023-03-13T00:42:13;98172.83;;;-6.09;100.0
64025;BME280;50266;57.446;26.936;2023-03-13T00:43:13;98176.67;;;-6.07;100.0
64025;BME280;50266;57.446;26.936;2023-03-13T00:44:13;98171.7;;;-6.14;100.0
64025;BME280;50266;57.446;26.936;2023-03-13T00:45:13;98175.61;;;-6.13;100.0
64025;BME280;50266;57.446;26.936;2023-03-13T00:46:15;98175.66;;;-6.18;100.0
64025;BME280;50266;57.446;26.936;2023-03-13T00:47:13;98173.06;;;-6.24;100.0
64025;BME280;50266;57.446;26.936;2023-03-13T00:48:13;98172.21;;;-6.45;100.0
64025;BME280;50266;57.446;26.936;2023-03-13T00:49:13;98169.92;;;-6.4;100.0
64025;BME280;50266;57.446;26.936;2023-03-13T00:50:13;98173.03;;;-6.22;100.0
64025;BME280;50266;57.446;26.936;2023-03-13T00:51:14;98173.6;;;-6.2;100.0
64025;BME280;50266;57.446;26.936;2023-03-13T00:52:13;98176.34;;;-6.35;100.0
64025;BME280;50266;57.446;26.936;2023-03-13T00:53:13;98174.16;;;-6.34;100.0
64025;BME280;50266;57.446;26.936;2023-03-13T00:54:13;98173.1;;;-6.19;100.0
64025;BME280;50266;57.446;26.936;2023-03-13T00:55:13;98173.53;;;-6.19;100.0
64025;BME280;50266;57.446;26.936;2023-03-13T00:56:14;98175.03;;;-6.31;100.0
64025;BME280;50266;57.446;26.936;2023-03-13T00:57:13;98175.8;;;-6.23;100.0
64025;BME280;50266;57.446;26.936;2023-03-13T00:58:13;98172.19;;;-6.34;100.0
64025;BME280;50266;57.446;26.936;2023-03-13T00:59:13;98172.58;;;-6.41;100.0
64025;BME280;50266;57.446;26.936;2023-03-13T01:00:14;98175.56;;;-6.39;100.0
64025;BME280;50266;57.446;26.936;2023-03-13T01:01:15;98175.27;;;-6.32;100.0
64025;BME280;50266;57.446;26.936;2023-03-13T01:02:14;98175.94;;;-6.22;100.0
64025;BME280;50266;57.446;26.936;2023-03-13T01:03:13;98172.86;;;-6.36;100.0
64025;BME280;50266;57.446;26.936;2023-03-13T01:04:13;98169.54;;;-6.31;100.0
64025;BME280;50266;57.446;26.936;2023-03-13T01:05:14;98174.84;;;-6.45;100.0
64025;BME280;50266;57.446;26.936;2023-03-13T01:06:16;98169.7;;;-6.46;100.0
64025;BME280;50266;57.446;26.936;2023-03-13T01:07:14;98172.11;;;-6.46;100.0
64025;BME280;50266;57.446;26.936;2023-03-13T01:08:14;98164.27;;;-6.52;100.0
64025;BME280;50266;57.446;26.936;2023-03-13T01:09:19;98165.36;;;-6.43;100.0
64025;BME280;50266;57.446;26.936;2023-03-13T01:10:15;98168.95;;;-6.47;100.0
64025;BME280;50266;57.446;26.936;2023-03-13T01:11:17;98169.27;;;-6.46;100.0
64025;BME280;50266;57.446;26.936;2023-03-13T01:12:15;98177.7;;;-6.54;100.0
64025;BME280;50266;57.446;26.936;2023-03-13T01:13:15;98176.17;;;-6.53;100.0
64025;BME280;50266;57.446;26.936;2023-03-13T01:14:17;98175.07;;;-6.54;100.0
64025;BME280;50266;57.446;26.936;2023-03-13T01:15:16;98171.66;;;-6.59;100.0
64025;BME280;50266;57.446;26.936;2023-03-13T01:16:16;98172.42;;;-6.62;100.0
64025;BME280;50266;57.446;26.936;2023-03-13T01:17:15;98170.83;;;-6.57;100.0
64025;BME280;50266;57.446;26.936;2023-03-13T01:18:15;98174.61;;;-6.61;100.0
64025;BME280;50266;57.446;26.936;2023-03-13T01:19:16;98178.16;;;-6.55;100.0
64025;BME280;50266;57.446;26.936;2023-03-13T01:20:16;98171.95;;;-6.67;100.0
64025;BME280;50266;57.446;26.936;2023-03-13T01:21:16;98173.69;;;-6.65;100.0
64025;BME280;50266;57.446;26.936;2023-03-13T01:22:15;98174.61;;;-6.59;100.0
64025;BME280;50266;57.446;26.936;2023-03-13T01:23:16;98171.69;;;-6.63;100.0
64025;BME280;50266;57.446;26.936;2023-03-13T01:24:16;98173.45;;;-6.63;100.0
64025;BME280;50266;57.446;26.936;2023-03-13T01:25:16;98170.45;;;-6.46;100.0
64025;BME280;50266;57.446;26.936;2023-03-13T01:26:16;98172.66;;;-6.58;100.0
64025;BME280;50266;57.446;26.936;2023-03-13T01:27:16;98168.61;;;-6.63;100.0
64025;BME280;50266;57.446;26.936;2023-03-13T01:28:16;98170.41;;;-6.71;100.0
64025;BME280;50266;57.446;26.936;2023-03-13T01:29:16;98171.66;;;-6.66;100.0
64025;BME280;50266;57.446;26.936;2023-03-13T01:30:16;98173.27;;;-6.55;100.0
64025;BME280;50266;57.446;26.936;2023-03-13T01:31:20;98178.97;;;-6.59;100.0
64025;BME280;50266;57.446;26.936;2023-03-13T01:32:17;98179.84;;;-6.66;100.0
64025;BME280;50266;57.446;26.936;2023-03-13T01:33:17;98185.21;;;-6.61;100.0
64025;BME280;50266;57.446;26.936;2023-03-13T01:34:17;98183.53;;;-6.7;100.0
64025;BME280;50266;57.446;26.936;2023-03-13T01:35:17;98189.36;;;-6.71;100.0
64025;BME280;50266;57.446;26.936;2023-03-13T01:36:17;98187.17;;;-6.69;100.0
64025;BME280;50266;57.446;26.936;2023-03-13T01:37:17;98196.88;;;-6.63;100.0
64025;BME280;50266;57.446;26.936;2023-03-13T01:38:17;98195.99;;;-6.69;100.0
64025;BME280;50266;57.446;26.936;2023-03-13T01:39:17;98201.25;;;-6.71;100.0
64025;BME280;50266;57.446;26.936;2023-03-13T01:40:17;98200.11;;;-6.65;100.0
64025;BME280;50266;57.446;26.936;2023-03-13T01:41:18;98203.9;;;-6.72;100.0
64025;BME280;50266;57.446;26.936;2023-03-13T01:42:17;98199.74;;;-6.74;100.0
64025;BME280;50266;57.446;26.936;2023-03-13T01:43:27;98204.0;;;-6.74;100.0
64025;BME280;50266;57.446;26.936;2023-03-13T01:44:20;98199.8;;;-6.58;100.0
64025;BME280;50266;57.446;26.936;2023-03-13T01:46:25;98199.14;;;-6.61;100.0
64025;BME280;50266;57.446;26.936;2023-03-13T01:47:23;98196.5;;;-6.63;100.0
64025;BME280;50266;57.446;26.936;2023-03-13T01:48:25;98192.73;;;-6.48;100.0
64025;BME280;50266;57.446;26.936;2023-03-13T01:49:28;98193.83;;;-6.49;100.0
64025;BME280;50266;57.446;26.936;2023-03-13T01:50:26;98190.68;;;-6.54;100.0
64025;BME280;50266;57.446;26.936;2023-03-13T01:51:37;98194.06;;;-6.7;100.0
64025;BME280;50266;57.446;26.936;2023-03-13T01:52:30;98194.61;;;-6.63;100.0
64025;BME280;50266;57.446;26.936;2023-03-13T01:53:31;98188.53;;;-6.52;100.0
64025;BME280;50266;57.446;26.936;2023-03-13T01:54:35;98186.88;;;-6.58;100.0
64025;BME280;50266;57.446;26.936;2023-03-13T01:55:33;98186.55;;;-6.55;100.0
64025;BME280;50266;57.446;26.936;2023-03-13T01:56:43;98195.22;;;-6.49;100.0
64025;BME280;50266;57.446;26.936;2023-03-13T01:57:37;98199.8;;;-6.39;100.0
64025;BME280;50266;57.446;26.936;2023-03-13T01:58:36;98206.42;;;-6.36;100.0
64025;BME280;50266;57.446;26.936;2023-03-13T01:59:38;98206.81;;;-6.32;100.0
64025;BME280;50266;57.446;26.936;2023-03-13T02:00:36;98201.17;;;-6.3;100.0
64025;BME280;50266;57.446;26.936;2023-03-13T02:01:36;98210.8;;;-6.22;100.0
64025;BME280;50266;57.446;26.936;2023-03-13T02:02:37;98213.92;;;-6.14;100.0
64025;BME280;50266;57.446;26.936;2023-03-13T02:03:36;98206.11;;;-6.13;100.0
64025;BME280;50266;57.446;26.936;2023-03-13T02:04:40;98214.89;;;-6.14;100.0
64025;BME280;50266;57.446;26.936;2023-03-13T02:05:40;98216.03;;;-6.14;100.0
64025;BME280;50266;57.446;26.936;2023-03-13T02:06:41;98211.07;;;-6.03;100.0
64025;BME280;50266;57.446;26.936;2023-03-13T02:07:42;98209.52;;;-6.09;100.0
64025;BME280;50266;57.446;26.936;2023-03-13T02:08:45;98213.53;;;-6.1;100.0
64025;BME280;50266;57.446;26.936;2023-03-13T02:09:45;98210.84;;;-6.04;100.0
64025;BME280;50266;57.446;26.936;2023-03-13T02:10:52;98215.58;;;-6.01;100.0
64025;BME280;50266;57.446;26.936;2023-03-13T02:11:54;98213.39;;;-6.03;100.0
64025;BME280;50266;57.446;26.936;2023-03-13T02:12:49;98213.2;;;-6.1;100.0
64025;BME280;50266;57.446;26.936;2023-03-13T02:13:49;98212.34;;;-6.07;100.0
64025;BME280;50266;57.446;26.936;2023-03-13T02:14:49;98214.75;;;-5.97;100.0
64025;BME280;50266;57.446;26.936;2023-03-13T02:15:49;98207.23;;;-5.93;100.0
64025;BME280;50266;57.446;26.936;2023-03-13T02:16:49;98216.48;;;-5.95;100.0
64025;BME280;50266;57.446;26.936;2023-03-13T02:17:49;98218.75;;;-5.95;100.0
64025;BME280;50266;57.446;26.936;2023-03-13T02:18:49;98215.81;;;-5.99;100.0
64025;BME280;50266;57.446;26.936;2023-03-13T02:19:49;98218.17;;;-5.99;100.0
64025;BME280;50266;57.446;26.936;2023-03-13T02:20:49;98219.39;;;-5.89;100.0
64025;BME280;50266;57.446;26.936;2023-03-13T02:24:00;98221.01;;;-5.89;100.0
64025;BME280;50266;57.446;26.936;2023-03-13T02:25:05;98220.33;;;-5.91;100.0
64025;BME280;50266;57.446;26.936;2023-03-13T02:26:00;98216.52;;;-5.94;100.0
64025;BME280;50266;57.446;26.936;2023-03-13T02:27:00;98226.03;;;-5.93;100.0
64025;BME280;50266;57.446;26.936;2023-03-13T02:28:02;98224.8;;;-5.87;100.0
64025;BME280;50266;57.446;26.936;2023-03-13T02:29:00;98225.68;;;-5.88;100.0
64025;BME280;50266;57.446;26.936;2023-03-13T02:30:00;98226.92;;;-5.94;100.0
64025;BME280;50266;57.446;26.936;2023-03-13T02:31:00;98227.34;;;-5.87;100.0
64025;BME280;50266;57.446;26.936;2023-03-13T02:32:00;98222.87;;;-5.84;100.0
64025;BME280;50266;57.446;26.936;2023-03-13T02:33:00;98228.12;;;-5.79;100.0
64025;BME280;50266;57.446;26.936;2023-03-13T02:34:00;98233.02;;;-5.85;100.0
64025;BME280;50266;57.446;26.936;2023-03-13T02:35:02;98232.58;;;-5.94;100.0
64025;BME280;50266;57.446;26.936;2023-03-13T02:36:00;98233.24;;;-6.0;100.0
64025;BME280;50266;57.446;26.936;2023-03-13T02:37:00;98230.09;;;-5.96;100.0
64025;BME280;50266;57.446;26.936;2023-03-13T02:38:02;98233.0;;;-5.94;100.0
64025;BME280;50266;57.446;26.936;2023-03-13T02:39:02;98238.03;;;-5.94;100.0
64025;BME280;50266;57.446;26.936;2023-03-13T02:40:02;98233.96;;;-6.01;100.0
64025;BME280;50266;57.446;26.936;2023-03-13T02:41:01;98241.8;;;-5.97;100.0
64025;BME280;50266;57.446;26.936;2023-03-13T02:42:00;98241.88;;;-5.96;100.0
64025;BME280;50266;57.446;26.936;2023-03-13T02:43:02;98234.72;;;-5.96;100.0
64025;BME280;50266;57.446;26.936;2023-03-13T02:44:01;98241.35;;;-5.91;100.0
64025;BME280;50266;57.446;26.936;2023-03-13T02:45:01;98246.64;;;-5.97;100.0
64025;BME280;50266;57.446;26.936;2023-03-13T02:46:04;98241.39;;;-5.93;100.0
64025;BME280;50266;57.446;26.936;2023-03-13T02:47:01;98246.72;;;-5.95;100.0
64025;BME280;50266;57.446;26.936;2023-03-13T02:48:01;98246.0;;;-6.03;100.0
64025;BME280;50266;57.446;26.936;2023-03-13T02:49:09;98250.92;;;-6.02;100.0
64025;BME280;50266;57.446;26.936;2023-03-13T02:50:02;98247.67;;;-5.94;100.0
64025;BME280;50266;57.446;26.936;2023-03-13T02:51:02;98245.5;;;-5.96;100.0
64025;BME280;50266;57.446;26.936;2023-03-13T02:52:12;98250.82;;;-6.02;100.0
64025;BME280;50266;57.446;26.936;2023-03-13T02:53:04;98252.45;;;-5.96;100.0
64025;BME280;50266;57.446;26.936;2023-03-13T02:54:06;98247.29;;;-5.97;100.0
64025;BME280;50266;57.446;26.936;2023-03-13T02:55:05;98258.88;;;-6.0;100.0
64025;BME280;50266;57.446;26.936;2023-03-13T02:56:05;98252.11;;;-5.98;100.0
64025;BME280;50266;57.446;26.936;2023-03-13T02:57:05;98256.03;;;-6.13;100.0
64025;BME280;50266;57.446;26.936;2023-03-13T02:58:05;98256.09;;;-6.07;100.0
64025;BME280;50266;57.446;26.936;2023-03-13T02:59:05;98254.05;;;-6.05;100.0
64025;BME280;50266;57.446;26.936;2023-03-13T03:00:05;98257.3;;;-6.11;100.0
64025;BME280;50266;57.446;26.936;2023-03-13T03:01:05;98269.57;;;-6.22;100.0
64025;BME280;50266;57.446;26.936;2023-03-13T03:02:05;98257.58;;;-6.12;100.0
64025;BME280;50266;57.446;26.936;2023-03-13T03:03:05;98265.3;;;-6.09;100.0
64025;BME280;50266;57.446;26.936;2023-03-13T03:04:05;98272.58;;;-6.22;100.0
64025;BME280;50266;57.446;26.936;2023-03-13T03:05:05;98273.31;;;-6.25;100.0
64025;BME280;50266;57.446;26.936;2023-03-13T03:06:05;98272.42;;;-6.22;100.0
64025;BME280;50266;57.446;26.936;2023-03-13T03:07:05;98274.03;;;-6.18;100.0
64025;BME280;50266;57.446;26.936;2023-03-13T03:08:05;98281.38;;;-6.27;100.0
64025;BME280;50266;57.446;26.936;2023-03-13T03:09:05;98278.0;;;-6.31;100.0
64025;BME280;50266;57.446;26.936;2023-03-13T03:10:05;98287.12;;;-6.35;100.0
64025;BME280;50266;57.446;26.936;2023-03-13T03:11:05;98289.11;;;-6.35;100.0
64025;BME280;50266;57.446;26.936;2023-03-13T03:12:05;98287.61;;;-6.26;100.0
64025;BME280;50266;57.446;26.936;2023-03-13T03:13:05;98287.66;;;-6.35;100.0
64025;BME280;50266;57.446;26.936;2023-03-13T03:14:05;98290.94;;;-6.31;100.0
64025;BME280;50266;57.446;26.936;2023-03-13T03:15:06;98291.86;;;-6.23;100.0
64025;BME280;50266;57.446;26.936;2023-03-13T03:16:09;98289.01;;;-6.22;100.0
64025;BME280;50266;57.446;26.936;2023-03-13T03:17:07;98295.8;;;-6.26;100.0
64025;BME280;50266;57.446;26.936;2023-03-13T03:18:07;98294.29;;;-6.35;100.0
64025;BME280;50266;57.446;26.936;2023-03-13T03:19:07;98301.47;;;-6.27;100.0
64025;BME280;50266;57.446;26.936;2023-03-13T03:20:07;98293.01;;;-6.3;100.0
64025;BME280;50266;57.446;26.936;2023-03-13T03:21:07;98293.89;;;-6.34;100.0
64025;BME280;50266;57.446;26.936;2023-03-13T03:22:07;98295.66;;;-6.44;100.0
64025;BME280;50266;57.446;26.936;2023-03-13T03:23:07;98297.09;;;-6.27;100.0
64025;BME280;50266;57.446;26.936;2023-03-13T03:24:07;98307.26;;;-6.35;100.0
64025;BME280;50266;57.446;26.936;2023-03-13T03:25:07;98304.38;;;-6.6;100.0
64025;BME280;50266;57.446;26.936;2023-03-13T03:26:07;98300.62;;;-6.62;100.0
64025;BME280;50266;57.446;26.936;2023-03-13T03:27:07;98303.02;;;-6.56;100.0
64025;BME280;50266;57.446;26.936;2023-03-13T03:28:07;98300.46;;;-6.54;100.0
64025;BME280;50266;57.446;26.936;2023-03-13T03:29:07;98303.47;;;-6.51;100.0
64025;BME280;50266;57.446;26.936;2023-03-13T03:30:07;98304.05;;;-6.43;100.0
64025;BME280;50266;57.446;26.936;2023-03-13T03:31:08;98303.92;;;-6.55;100.0
64025;BME280;50266;57.446;26.936;2023-03-13T03:32:07;98309.34;;;-6.58;100.0
64025;BME280;50266;57.446;26.936;2023-03-13T03:33:07;98306.56;;;-6.56;100.0
64025;BME280;50266;57.446;26.936;2023-03-13T03:34:07;98305.06;;;-6.59;100.0
64025;BME280;50266;57.446;26.936;2023-03-13T03:35:07;98308.46;;;-6.6;100.0
64025;BME280;50266;57.446;26.936;2023-03-13T03:36:11;98315.38;;;-6.58;100.0
64025;BME280;50266;57.446;26.936;2023-03-13T03:37:08;98307.53;;;-6.62;100.0
64025;BME280;50266;57.446;26.936;2023-03-13T03:38:08;98319.33;;;-6.68;100.0
64025;BME280;50266;57.446;26.936;2023-03-13T03:39:08;98315.84;;;-6.69;100.0
64025;BME280;50266;57.446;26.936;2023-03-13T03:40:09;98317.6;;;-6.71;100.0
64025;BME280;50266;57.446;26.936;2023-03-13T03:41:09;98318.05;;;-6.76;100.0
64025;BME280;50266;57.446;26.936;2023-03-13T03:42:08;98319.19;;;-6.69;100.0
64025;BME280;50266;57.446;26.936;2023-03-13T03:43:09;98324.14;;;-6.76;100.0
64025;BME280;50266;57.446;26.936;2023-03-13T03:44:08;98323.6;;;-6.79;100.0
64025;BME280;50266;57.446;26.936;2023-03-13T03:45:09;98327.81;;;-6.8;100.0
64025;BME280;50266;57.446;26.936;2023-03-13T03:46:08;98323.24;;;-6.81;100.0
64025;BME280;50266;57.446;26.936;2023-03-13T03:47:08;98327.59;;;-6.8;100.0
64025;BME280;50266;57.446;26.936;2023-03-13T03:48:08;98323.36;;;-6.74;100.0
64025;BME280;50266;57.446;26.936;2023-03-13T03:49:08;98330.22;;;-6.76;100.0
64025;BME280;50266;57.446;26.936;2023-03-13T03:50:09;98330.41;;;-6.86;100.0
64025;BME280;50266;57.446;26.936;2023-03-13T03:51:08;98333.42;;;-6.86;100.0
64025;BME280;50266;57.446;26.936;2023-03-13T03:52:09;98335.17;;;-6.92;100.0
64025;BME280;50266;57.446;26.936;2023-03-13T03:53:09;98334.05;;;-6.92;100.0
64025;BME280;50266;57.446;26.936;2023-03-13T03:54:08;98337.39;;;-6.85;100.0
64025;BME280;50266;57.446;26.936;2023-03-13T03:55:09;98338.02;;;-6.96;100.0
64025;BME280;50266;57.446;26.936;2023-03-13T03:56:09;98334.75;;;-6.93;100.0
64025;BME280;50266;57.446;26.936;2023-03-13T03:57:08;98328.55;;;-6.91;100.0
64025;BME280;50266;57.446;26.936;2023-03-13T03:58:09;98333.86;;;-6.95;100.0
64025;BME280;50266;57.446;26.936;2023-03-13T03:59:09;98335.89;;;-6.94;100.0
64025;BME280;50266;57.446;26.936;2023-03-13T04:00:09;98336.45;;;-6.99;100.0
64025;BME280;50266;57.446;26.936;2023-03-13T04:01:09;98332.05;;;-6.96;100.0
64025;BME280;50266;57.446;26.936;2023-03-13T04:02:09;98335.73;;;-7.05;100.0
64025;BME280;50266;57.446;26.936;2023-03-13T04:03:09;98333.28;;;-7.08;100.0
64025;BME280;50266;57.446;26.936;2023-03-13T04:04:09;98332.38;;;-7.09;100.0
64025;BME280;50266;57.446;26.936;2023-03-13T04:05:09;98335.11;;;-7.12;100.0
64025;BME280;50266;57.446;26.936;2023-03-13T04:06:09;98340.17;;;-7.17;100.0
64025;BME280;50266;57.446;26.936;2023-03-13T04:07:09;98347.62;;;-7.19;100.0
64025;BME280;50266;57.446;26.936;2023-03-13T04:08:09;98342.37;;;-7.08;100.0
64025;BME280;50266;57.446;26.936;2023-03-13T04:09:09;98344.39;;;-7.06;100.0
64025;BME280;50266;57.446;26.936;2023-03-13T04:10:09;98345.97;;;-7.07;100.0
64025;BME280;50266;57.446;26.936;2023-03-13T04:11:09;98356.5;;;-7.05;100.0
64025;BME280;50266;57.446;26.936;2023-03-13T04:12:09;98351.41;;;-7.03;100.0
64025;BME280;50266;57.446;26.936;2023-03-13T04:13:09;98353.22;;;-6.97;100.0
64025;BME280;50266;57.446;26.936;2023-03-13T04:14:09;98358.05;;;-7.04;100.0
64025;BME280;50266;57.446;26.936;2023-03-13T04:15:10;98358.62;;;-7.09;100.0
64025;BME280;50266;57.446;26.936;2023-03-13T04:16:09;98359.77;;;-7.18;100.0
64025;BME280;50266;57.446;26.936;2023-03-13T04:17:09;98366.77;;;-7.14;100.0
64025;BME280;50266;57.446;26.936;2023-03-13T04:18:09;98366.33;;;-7.18;100.0
64025;BME280;50266;57.446;26.936;2023-03-13T04:19:09;98365.75;;;-7.19;100.0
64025;BME280;50266;57.446;26.936;2023-03-13T04:20:10;98362.94;;;-7.26;100.0
64025;BME280;50266;57.446;26.936;2023-03-13T04:21:09;98363.55;;;-7.19;100.0
64025;BME280;50266;57.446;26.936;2023-03-13T04:22:09;98357.5;;;-7.27;100.0
64025;BME280;50266;57.446;26.936;2023-03-13T04:23:09;98361.08;;;-7.38;100.0
64025;BME280;50266;57.446;26.936;2023-03-13T04:24:09;98356.56;;;-7.2;100.0
64025;BME280;50266;57.446;26.936;2023-03-13T04:25:09;98363.01;;;-7.29;100.0
64025;BME280;50266;57.446;26.936;2023-03-13T04:26:09;98361.0;;;-7.28;100.0
64025;BME280;50266;57.446;26.936;2023-03-13T04:27:09;98359.02;;;-7.28;100.0
64025;BME280;50266;57.446;26.936;2023-03-13T04:28:09;98366.62;;;-7.24;100.0
64025;BME280;50266;57.446;26.936;2023-03-13T04:29:09;98367.27;;;-7.24;100.0
64025;BME280;50266;57.446;26.936;2023-03-13T04:30:10;98366.84;;;-7.25;100.0
64025;BME280;50266;57.446;26.936;2023-03-13T04:31:09;98363.84;;;-7.35;100.0
64025;BME280;50266;57.446;26.936;2023-03-13T04:32:09;98368.91;;;-7.18;100.0
64025;BME280;50266;57.446;26.936;2023-03-13T04:33:09;98371.19;;;-7.2;100.0
64025;BME280;50266;57.446;26.936;2023-03-13T04:34:10;98367.34;;;-7.35;100.0
64025;BME280;50266;57.446;26.936;2023-03-13T04:35:10;98365.56;;;-7.4;100.0
64025;BME280;50266;57.446;26.936;2023-03-13T04:36:10;98365.58;;;-7.48;100.0
64025;BME280;50266;57.446;26.936;2023-03-13T04:37:10;98370.3;;;-7.45;100.0
64025;BME280;50266;57.446;26.936;2023-03-13T04:38:10;98372.91;;;-7.34;100.0
64025;BME280;50266;57.446;26.936;2023-03-13T04:39:10;98376.47;;;-7.31;100.0
64025;BME280;50266;57.446;26.936;2023-03-13T04:40:10;98378.23;;;-7.34;100.0
64025;BME280;50266;57.446;26.936;2023-03-13T04:41:10;98381.1;;;-7.36;100.0
64025;BME280;50266;57.446;26.936;2023-03-13T04:42:10;98376.77;;;-7.37;100.0
64025;BME280;50266;57.446;26.936;2023-03-13T04:43:10;98381.02;;;-7.42;100.0
64025;BME280;50266;57.446;26.936;2023-03-13T04:44:10;98378.55;;;-7.42;100.0
64025;BME280;50266;57.446;26.936;2023-03-13T04:45:10;98392.91;;;-7.34;100.0
64025;BME280;50266;57.446;26.936;2023-03-13T04:46:10;98376.51;;;-7.49;100.0
64025;BME280;50266;57.446;26.936;2023-03-13T04:47:10;98382.31;;;-7.59;100.0
64025;BME280;50266;57.446;26.936;2023-03-13T04:48:10;98385.67;;;-7.52;100.0
64025;BME280;50266;57.446;26.936;2023-03-13T04:49:10;98379.07;;;-7.37;100.0
64025;BME280;50266;57.446;26.936;2023-03-13T04:50:10;98379.33;;;-7.36;100.0
64025;BME280;50266;57.446;26.936;2023-03-13T04:51:10;98378.84;;;-7.27;100.0
64025;BME280;50266;57.446;26.936;2023-03-13T04:52:10;98377.96;;;-7.34;100.0
64025;BME280;50266;57.446;26.936;2023-03-13T04:53:10;98384.39;;;-7.28;100.0
64025;BME280;50266;57.446;26.936;2023-03-13T04:54:10;98389.32;;;-7.24;100.0
64025;BME280;50266;57.446;26.936;2023-03-13T04:55:10;98386.36;;;-7.24;100.0
64025;BME280;50266;57.446;26.936;2023-03-13T04:56:11;98390.6;;;-7.23;100.0
64025;BME280;50266;57.446;26.936;2023-03-13T04:57:11;98395.67;;;-7.16;100.0
64025;BME280;50266;57.446;26.936;2023-03-13T04:58:11;98391.05;;;-7.25;100.0
64025;BME280;50266;57.446;26.936;2023-03-13T04:59:11;98391.5;;;-7.33;100.0
64025;BME280;50266;57.446;26.936;2023-03-13T05:00:12;98388.86;;;-7.28;100.0
64025;BME280;50266;57.446;26.936;2023-03-13T05:01:11;98390.91;;;-7.28;100.0
64025;BME280;50266;57.446;26.936;2023-03-13T05:02:11;98389.73;;;-7.19;100.0
64025;BME280;50266;57.446;26.936;2023-03-13T05:03:11;98392.12;;;-7.07;100.0
64025;BME280;50266;57.446;26.936;2023-03-13T05:04:11;98394.66;;;-6.98;100.0
64025;BME280;50266;57.446;26.936;2023-03-13T05:05:11;98394.16;;;-7.07;100.0
64025;BME280;50266;57.446;26.936;2023-03-13T05:06:11;98398.0;;;-7.21;100.0
64025;BME280;50266;57.446;26.936;2023-03-13T05:07:11;98400.89;;;-6.98;100.0
64025;BME280;50266;57.446;26.936;2023-03-13T05:08:11;98398.52;;;-6.93;100.0
64025;BME280;50266;57.446;26.936;2023-03-13T05:09:11;98402.52;;;-7.03;100.0
64025;BME280;50266;57.446;26.936;2023-03-13T05:10:11;98403.48;;;-7.13;100.0
64025;BME280;50266;57.446;26.936;2023-03-13T05:11:11;98409.09;;;-7.1;100.0
64025;BME280;50266;57.446;26.936;2023-03-13T05:12:11;98399.16;;;-7.07;100.0
64025;BME280;50266;57.446;26.936;2023-03-13T05:13:11;98404.09;;;-7.09;100.0
64025;BME280;50266;57.446;26.936;2023-03-13T05:14:11;98404.77;;;-7.12;100.0
64025;BME280;50266;57.446;26.936;2023-03-13T05:15:11;98409.92;;;-7.16;100.0
64025;BME280;50266;57.446;26.936;2023-03-13T05:16:11;98411.88;;;-7.18;100.0
64025;BME280;50266;57.446;26.936;2023-03-13T05:17:11;98410.27;;;-7.09;100.0
64025;BME280;50266;57.446;26.936;2023-03-13T05:18:11;98409.8;;;-7.01;100.0